sensor_id;sensor_type;location;lat;lon;timestamp;temperature;humidity
8043;DHT22;4064;48.132;11.366;2023-04-03T00:01:02;2.00;99.90
8043;DHT22;4064;48.132;11.366;2023-04-03T00:03:28;2.10;99.90
8043;DHT22;4064;48.132;11.366;2023-04-03T00:05:54;2.10;99.90
8043;DHT22;4064;48.132;11.366;2023-04-03T00:08:20;2.10;99.90
8043;DHT22;4064;48.132;11.366;2023-04-03T00:10:47;2.10;99.90
8043;DHT22;4064;48.132;11.366;2023-04-03T00:13:13;2.10;99.90
8043;DHT22;4064;48.132;11.366;2023-04-03T00:15:40;2.20;99.90
8043;DHT22;4064;48.132;11.366;2023-04-03T00:18:06;2.20;99.90
8043;DHT22;4064;48.132;11.366;2023-04-03T00:20:33;2.20;99.90
8043;DHT22;4064;48.132;11.366;2023-04-03T00:23:00;2.20;99.90
8043;DHT22;4064;48.132;11.366;2023-04-03T00:25:26;2.10;99.90
8043;DHT22;4064;48.132;11.366;2023-04-03T00:27:53;2.00;99.90
8043;DHT22;4064;48.132;11.366;2023-04-03T00:30:20;2.10;99.90
8043;DHT22;4064;48.132;11.366;2023-04-03T00:32:48;2.10;99.90
8043;DHT22;4064;48.132;11.366;2023-04-03T00:35:14;2.10;99.90
8043;DHT22;4064;48.132;11.366;2023-04-03T00:37:42;1.90;99.90
8043;DHT22;4064;48.132;11.366;2023-04-03T00:40:10;1.80;99.90
8043;DHT22;4064;48.132;11.366;2023-04-03T00:42:38;1.80;99.90
8043;DHT22;4064;48.132;11.366;2023-04-03T00:47:31;1.80;99.90
8043;DHT22;4064;48.132;11.366;2023-04-03T00:49:57;1.80;99.90
8043;DHT22;4064;48.132;11.366;2023-04-03T00:52:27;1.80;99.90
8043;DHT22;4064;48.132;11.366;2023-04-03T00:54:59;1.80;99.90
8043;DHT22;4064;48.132;11.366;2023-04-03T00:57:28;1.80;99.90
8043;DHT22;4064;48.132;11.366;2023-04-03T00:59:59;1.80;99.90
8043;DHT22;4064;48.132;11.366;2023-04-03T01:02:28;1.80;99.90
8043;DHT22;4064;48.132;11.366;2023-04-03T01:04:54;1.80;99.90
8043;DHT22;4064;48.132;11.366;2023-04-03T01:07:29;1.70;99.90
8043;DHT22;4064;48.132;11.366;2023-04-03T01:09:58;1.70;99.90
8043;DHT22;4064;48.132;11.366;2023-04-03T01:12:35;1.80;99.90
8043;DHT22;4064;48.132;11.366;2023-04-03T01:15:12;1.80;99.90
8043;DHT22;4064;48.132;11.366;2023-04-03T01:23:25;1.90;99.90
8043;DHT22;4064;48.132;11.366;2023-04-03T01:25:55;1.80;99.90
8043;DHT22;4064;48.132;11.366;2023-04-03T01:33:36;1.80;99.90
8043;DHT22;4064;48.132;11.366;2023-04-03T01:36:05;1.90;99.90
8043;DHT22;4064;48.132;11.366;2023-04-03T01:38:31;1.80;99.90
8043;DHT22;4064;48.132;11.366;2023-04-03T01:40:57;1.70;99.90
8043;DHT22;4064;48.132;11.366;2023-04-03T01:43:23;1.70;99.90
8043;DHT22;4064;48.132;11.366;2023-04-03T01:45:49;1.80;99.90
8043;DHT22;4064;48.132;11.366;2023-04-03T01:48:16;1.80;99.90
8043;DHT22;4064;48.132;11.366;2023-04-03T01:50:41;1.80;99.90
8043;DHT22;4064;48.132;11.366;2023-04-03T01:53:08;1.80;99.90
8043;DHT22;4064;48.132;11.366;2023-04-03T01:55:34;1.80;99.90
8043;DHT22;4064;48.132;11.366;2023-04-03T01:58:00;1.80;99.90
8043;DHT22;4064;48.132;11.366;2023-04-03T02:00:26;1.80;99.90
8043;DHT22;4064;48.132;11.366;2023-04-03T02:02:52;1.80;99.90
8043;DHT22;4064;48.132;11.366;2023-04-03T02:05:18;1.80;99.90
8043;DHT22;4064;48.132;11.366;2023-04-03T02:07:44;1.80;99.90
8043;DHT22;4064;48.132;11.366;2023-04-03T02:10:12;1.80;99.90
8043;DHT22;4064;48.132;11.366;2023-04-03T02:12:38;1.70;99.90
8043;DHT22;4064;48.132;11.366;2023-04-03T02:15:05;1.70;99.90
8043;DHT22;4064;48.132;11.366;2023-04-03T02:17:31;1.70;99.90
8043;DHT22;4064;48.132;11.366;2023-04-03T02:19:57;1.60;99.90
8043;DHT22;4064;48.132;11.366;2023-04-03T02:22:23;1.70;99.90
8043;DHT22;4064;48.132;11.366;2023-04-03T02:24:49;1.70;99.90
8043;DHT22;4064;48.132;11.366;2023-04-03T02:27:15;1.80;99.90
8043;DHT22;4064;48.132;11.366;2023-04-03T02:29:41;1.80;99.90
8043;DHT22;4064;48.132;11.366;2023-04-03T02:32:07;1.80;99.90
8043;DHT22;4064;48.132;11.366;2023-04-03T02:34:32;1.70;99.90
8043;DHT22;4064;48.132;11.366;2023-04-03T02:36:58;1.70;99.90
8043;DHT22;4064;48.132;11.366;2023-04-03T02:39:24;1.70;99.90
8043;DHT22;4064;48.132;11.366;2023-04-03T02:41:50;1.70;99.90
8043;DHT22;4064;48.132;11.366;2023-04-03T02:44:16;1.70;99.90
8043;DHT22;4064;48.132;11.366;2023-04-03T02:46:43;1.80;99.90
8043;DHT22;4064;48.132;11.366;2023-04-03T02:49:08;1.80;99.90
8043;DHT22;4064;48.132;11.366;2023-04-03T02:51:34;1.80;99.90
8043;DHT22;4064;48.132;11.366;2023-04-03T02:54:00;1.90;99.90
8043;DHT22;4064;48.132;11.366;2023-04-03T02:56:26;1.90;99.90
8043;DHT22;4064;48.132;11.366;2023-04-03T02:58:52;1.90;99.90
8043;DHT22;4064;48.132;11.366;2023-04-03T03:01:18;1.80;99.90
8043;DHT22;4064;48.132;11.366;2023-04-03T03:03:44;1.80;99.90
8043;DHT22;4064;48.132;11.366;2023-04-03T03:06:13;1.80;99.90
8043;DHT22;4064;48.132;11.366;2023-04-03T03:08:41;1.80;99.90
8043;DHT22;4064;48.132;11.366;2023-04-03T03:11:06;1.80;99.90
8043;DHT22;4064;48.132;11.366;2023-04-03T03:13:33;1.80;99.90
8043;DHT22;4064;48.132;11.366;2023-04-03T03:15:58;1.90;99.90
8043;DHT22;4064;48.132;11.366;2023-04-03T03:18:24;1.80;99.90
8043;DHT22;4064;48.132;11.366;2023-04-03T03:20:57;1.80;99.90
8043;DHT22;4064;48.132;11.366;2023-04-03T03:23:25;1.80;99.90
8043;DHT22;4064;48.132;11.366;2023-04-03T03:26:00;1.80;99.90
8043;DHT22;4064;48.132;11.366;2023-04-03T03:28:26;1.80;99.90
8043;DHT22;4064;48.132;11.366;2023-04-03T03:30:52;1.90;99.90
8043;DHT22;4064;48.132;11.366;2023-04-03T03:33:18;1.90;99.90
8043;DHT22;4064;48.132;11.366;2023-04-03T03:35:45;1.90;99.90
8043;DHT22;4064;48.132;11.366;2023-04-03T03:38:12;2.00;99.90
8043;DHT22;4064;48.132;11.366;2023-04-03T03:40:38;2.00;99.90
8043;DHT22;4064;48.132;11.366;2023-04-03T03:43:07;2.10;99.90
8043;DHT22;4064;48.132;11.366;2023-04-03T03:45:44;2.00;99.90
8043;DHT22;4064;48.132;11.366;2023-04-03T03:48:11;2.10;99.90
8043;DHT22;4064;48.132;11.366;2023-04-03T03:50:37;2.00;99.90
8043;DHT22;4064;48.132;11.366;2023-04-03T03:53:03;1.90;99.90
8043;DHT22;4064;48.132;11.366;2023-04-03T03:55:29;2.00;99.90
8043;DHT22;4064;48.132;11.366;2023-04-03T03:57:55;2.00;99.90
8043;DHT22;4064;48.132;11.366;2023-04-03T04:00:21;2.00;99.90
8043;DHT22;4064;48.132;11.366;2023-04-03T04:02:48;1.90;99.90
8043;DHT22;4064;48.132;11.366;2023-04-03T04:05:14;1.90;99.90
8043;DHT22;4064;48.132;11.366;2023-04-03T04:07:40;2.00;99.90
8043;DHT22;4064;48.132;11.366;2023-04-03T04:10:07;2.00;99.90
8043;DHT22;4064;48.132;11.366;2023-04-03T04:12:33;2.00;99.90
8043;DHT22;4064;48.132;11.366;2023-04-03T04:15:01;2.00;99.90
8043;DHT22;4064;48.132;11.366;2023-04-03T04:17:27;2.00;99.90
8043;DHT22;4064;48.132;11.366;2023-04-03T04:19:53;2.10;99.90
8043;DHT22;4064;48.132;11.366;2023-04-03T04:22:19;2.10;99.90
8043;DHT22;4064;48.132;11.366;2023-04-03T04:24:45;2.10;99.90
8043;DHT22;4064;48.132;11.366;2023-04-03T04:27:11;2.10;99.90
8043;DHT22;4064;48.132;11.366;2023-04-03T04:29:37;2.10;99.90
8043;DHT22;4064;48.132;11.366;2023-04-03T04:32:03;2.00;99.90
8043;DHT22;4064;48.132;11.366;2023-04-03T04:34:30;2.00;99.90
8043;DHT22;4064;48.132;11.366;2023-04-03T04:36:57;2.00;99.90
8043;DHT22;4064;48.132;11.366;2023-04-03T04:39:23;2.00;99.90
8043;DHT22;4064;48.132;11.366;2023-04-03T04:41:49;2.10;99.90
8043;DHT22;4064;48.132;11.366;2023-04-03T04:44:15;2.10;99.90
8043;DHT22;4064;48.132;11.366;2023-04-03T04:46:41;2.10;99.90
8043;DHT22;4064;48.132;11.366;2023-04-03T04:49:06;2.10;99.90
8043;DHT22;4064;48.132;11.366;2023-04-03T04:51:32;2.10;99.90
8043;DHT22;4064;48.132;11.366;2023-04-03T04:53:58;2.10;99.90
8043;DHT22;4064;48.132;11.366;2023-04-03T04:56:24;2.10;99.90
8043;DHT22;4064;48.132;11.366;2023-04-03T04:58:50;2.10;99.90
8043;DHT22;4064;48.132;11.366;2023-04-03T05:01:16;2.10;99.90
8043;DHT22;4064;48.132;11.366;2023-04-03T05:03:42;2.20;99.90
8043;DHT22;4064;48.132;11.366;2023-04-03T05:06:08;2.20;99.90
8043;DHT22;4064;48.132;11.366;2023-04-03T05:08:34;2.10;99.90
8043;DHT22;4064;48.132;11.366;2023-04-03T05:11:00;2.10;99.90
8043;DHT22;4064;48.132;11.366;2023-04-03T05:13:25;2.10;99.90
8043;DHT22;4064;48.132;11.366;2023-04-03T05:15:51;2.10;99.90
8043;DHT22;4064;48.132;11.366;2023-04-03T05:18:17;2.10;99.90
8043;DHT22;4064;48.132;11.366;2023-04-03T05:20:43;2.10;99.90
8043;DHT22;4064;48.132;11.366;2023-04-03T05:23:09;2.00;99.90
8043;DHT22;4064;48.132;11.366;2023-04-03T05:25:38;2.10;99.90
8043;DHT22;4064;48.132;11.366;2023-04-03T05:28:04;2.10;99.90
8043;DHT22;4064;48.132;11.366;2023-04-03T05:30:30;2.00;99.90
8043;DHT22;4064;48.132;11.366;2023-04-03T05:32:56;2.00;99.90
8043;DHT22;4064;48.132;11.366;2023-04-03T05:35:23;2.00;99.90
8043;DHT22;4064;48.132;11.366;2023-04-03T05:37:48;2.00;99.90
8043;DHT22;4064;48.132;11.366;2023-04-03T05:40:14;2.10;99.90
8043;DHT22;4064;48.132;11.366;2023-04-03T05:42:40;2.10;99.90
8043;DHT22;4064;48.132;11.366;2023-04-03T05:45:06;2.10;99.90
8043;DHT22;4064;48.132;11.366;2023-04-03T05:47:32;2.20;99.90
8043;DHT22;4064;48.132;11.366;2023-04-03T05:49:58;2.20;99.90
8043;DHT22;4064;48.132;11.366;2023-04-03T05:52:35;2.20;99.90
8043;DHT22;4064;48.132;11.366;2023-04-03T05:55:01;2.20;99.90
8043;DHT22;4064;48.132;11.366;2023-04-03T05:57:27;2.20;99.90
8043;DHT22;4064;48.132;11.366;2023-04-03T05:59:53;2.30;99.90
8043;DHT22;4064;48.132;11.366;2023-04-03T06:02:22;2.30;99.90
8043;DHT22;4064;48.132;11.366;2023-04-03T06:04:49;2.30;99.90
8043;DHT22;4064;48.132;11.366;2023-04-03T06:07:18;2.30;99.90
8043;DHT22;4064;48.132;11.366;2023-04-03T06:09:48;2.30;99.90
8043;DHT22;4064;48.132;11.366;2023-04-03T06:12:14;2.30;99.90
8043;DHT22;4064;48.132;11.366;2023-04-03T06:14:40;2.30;99.90
8043;DHT22;4064;48.132;11.366;2023-04-03T06:17:06;2.30;99.90
8043;DHT22;4064;48.132;11.366;2023-04-03T06:19:34;2.40;99.90
8043;DHT22;4064;48.132;11.366;2023-04-03T06:22:00;2.30;99.90
8043;DHT22;4064;48.132;11.366;2023-04-03T06:24:26;2.40;99.90
8043;DHT22;4064;48.132;11.366;2023-04-03T06:26:52;2.40;99.90
8043;DHT22;4064;48.132;11.366;2023-04-03T06:29:19;2.50;99.90
8043;DHT22;4064;48.132;11.366;2023-04-03T06:31:45;2.50;99.90
8043;DHT22;4064;48.132;11.366;2023-04-03T06:34:12;2.60;99.90
8043;DHT22;4064;48.132;11.366;2023-04-03T06:36:39;2.60;99.90
8043;DHT22;4064;48.132;11.366;2023-04-03T06:39:06;2.70;99.90
8043;DHT22;4064;48.132;11.366;2023-04-03T06:41:32;2.70;99.90
8043;DHT22;4064;48.132;11.366;2023-04-03T06:43:58;2.80;99.90
8043;DHT22;4064;48.132;11.366;2023-04-03T06:46:26;2.80;99.90
8043;DHT22;4064;48.132;11.366;2023-04-03T06:48:52;2.80;99.90
8043;DHT22;4064;48.132;11.366;2023-04-03T06:51:26;2.80;99.90
8043;DHT22;4064;48.132;11.366;2023-04-03T06:53:54;2.80;99.90
8043;DHT22;4064;48.132;11.366;2023-04-03T06:56:21;2.80;99.90
8043;DHT22;4064;48.132;11.366;2023-04-03T06:58:47;2.90;99.90
8043;DHT22;4064;48.132;11.366;2023-04-03T07:01:15;2.90;99.90
8043;DHT22;4064;48.132;11.366;2023-04-03T07:03:43;3.00;99.90
8043;DHT22;4064;48.132;11.366;2023-04-03T07:06:13;3.00;99.90
8043;DHT22;4064;48.132;11.366;2023-04-03T07:08:40;3.10;99.90
8043;DHT22;4064;48.132;11.366;2023-04-03T07:11:07;3.20;99.90
8043;DHT22;4064;48.132;11.366;2023-04-03T07:13:34;3.30;99.90
8043;DHT22;4064;48.132;11.366;2023-04-03T07:16:00;3.40;99.90
8043;DHT22;4064;48.132;11.366;2023-04-03T07:18:26;3.50;99.90
8043;DHT22;4064;48.132;11.366;2023-04-03T07:20:52;3.50;99.90
8043;DHT22;4064;48.132;11.366;2023-04-03T07:23:19;3.70;99.90
8043;DHT22;4064;48.132;11.366;2023-04-03T07:25:46;3.70;99.90
8043;DHT22;4064;48.132;11.366;2023-04-03T07:28:13;3.80;99.90
8043;DHT22;4064;48.132;11.366;2023-04-03T07:30:47;3.90;99.90
8043;DHT22;4064;48.132;11.366;2023-04-03T07:33:14;4.00;99.90
8043;DHT22;4064;48.132;11.366;2023-04-03T07:35:41;4.10;99.90
8043;DHT22;4064;48.132;11.366;2023-04-03T07:38:08;4.20;99.90
8043;DHT22;4064;48.132;11.366;2023-04-03T07:40:35;4.20;99.90
8043;DHT22;4064;48.132;11.366;2023-04-03T07:43:01;4.30;99.90
8043;DHT22;4064;48.132;11.366;2023-04-03T07:45:28;4.30;99.90
8043;DHT22;4064;48.132;11.366;2023-04-03T07:47:53;4.40;99.90
8043;DHT22;4064;48.132;11.366;2023-04-03T07:50:19;4.30;99.90
8043;DHT22;4064;48.132;11.366;2023-04-03T07:52:45;4.30;99.90
8043;DHT22;4064;48.132;11.366;2023-04-03T07:55:11;4.20;99.90
8043;DHT22;4064;48.132;11.366;2023-04-03T07:57:37;4.30;99.90
8043;DHT22;4064;48.132;11.366;2023-04-03T08:00:04;4.30;99.90
8043;DHT22;4064;48.132;11.366;2023-04-03T08:02:31;4.30;99.90
8043;DHT22;4064;48.132;11.366;2023-04-03T08:04:58;4.40;99.90
8043;DHT22;4064;48.132;11.366;2023-04-03T08:07:25;4.30;99.90
8043;DHT22;4064;48.132;11.366;2023-04-03T08:09:51;4.40;99.90
8043;DHT22;4064;48.132;11.366;2023-04-03T08:12:17;4.40;99.90
8043;DHT22;4064;48.132;11.366;2023-04-03T08:14:43;4.40;99.90
8043;DHT22;4064;48.132;11.366;2023-04-03T08:17:09;4.40;99.90
8043;DHT22;4064;48.132;11.366;2023-04-03T08:19:40;4.40;99.90
8043;DHT22;4064;48.132;11.366;2023-04-03T08:22:06;4.40;99.90
8043;DHT22;4064;48.132;11.366;2023-04-03T08:24:35;4.40;99.90
8043;DHT22;4064;48.132;11.366;2023-04-03T08:27:01;4.40;99.90
8043;DHT22;4064;48.132;11.366;2023-04-03T08:29:27;4.50;99.90
8043;DHT22;4064;48.132;11.366;2023-04-03T08:31:55;4.50;99.90
8043;DHT22;4064;48.132;11.366;2023-04-03T08:34:21;4.60;99.90
8043;DHT22;4064;48.132;11.366;2023-04-03T08:36:47;4.70;99.90
8043;DHT22;4064;48.132;11.366;2023-04-03T08:39:14;4.70;99.90
8043;DHT22;4064;48.132;11.366;2023-04-03T08:41:43;4.70;99.90
8043;DHT22;4064;48.132;11.366;2023-04-03T08:50:36;4.60;99.90
8043;DHT22;4064;48.132;11.366;2023-04-03T08:52:44;4.60;99.90
8043;DHT22;4064;48.132;11.366;2023-04-03T08:56:02;4.60;99.90
8043;DHT22;4064;48.132;11.366;2023-04-03T08:58:49;4.60;99.90
8043;DHT22;4064;48.132;11.366;2023-04-03T09:01:23;4.60;99.90
8043;DHT22;4064;48.132;11.366;2023-04-03T09:04:11;4.60;99.90
8043;DHT22;4064;48.132;11.366;2023-04-03T09:06:59;4.60;99.90
8043;DHT22;4064;48.132;11.366;2023-04-03T09:09:43;4.70;99.90
8043;DHT22;4064;48.132;11.366;2023-04-03T09:12:42;4.60;99.90
8043;DHT22;4064;48.132;11.366;2023-04-03T09:15:24;4.50;99.90
8043;DHT22;4064;48.132;11.366;2023-04-03T09:18:05;4.40;99.90
8043;DHT22;4064;48.132;11.366;2023-04-03T09:23:50;4.60;99.90
8043;DHT22;4064;48.132;11.366;2023-04-03T09:28:52;4.80;99.90
8043;DHT22;4064;48.132;11.366;2023-04-03T09:31:36;4.90;99.90
8043;DHT22;4064;48.132;11.366;2023-04-03T09:34:08;5.00;99.90
8043;DHT22;4064;48.132;11.366;2023-04-03T09:36:43;5.10;99.90
8043;DHT22;4064;48.132;11.366;2023-04-03T09:39:24;5.20;99.90
8043;DHT22;4064;48.132;11.366;2023-04-03T09:42:03;5.20;99.90
8043;DHT22;4064;48.132;11.366;2023-04-03T09:44:35;5.40;99.90
8043;DHT22;4064;48.132;11.366;2023-04-03T09:47:30;5.50;99.90
8043;DHT22;4064;48.132;11.366;2023-04-03T09:52:41;5.80;99.90
8043;DHT22;4064;48.132;11.366;2023-04-03T09:55:25;5.70;99.90
8043;DHT22;4064;48.132;11.366;2023-04-03T09:57:59;5.70;99.90
8043;DHT22;4064;48.132;11.366;2023-04-03T10:00:36;5.60;99.90
8043;DHT22;4064;48.132;11.366;2023-04-03T10:03:03;5.70;99.90
8043;DHT22;4064;48.132;11.366;2023-04-03T10:05:35;5.70;99.90
8043;DHT22;4064;48.132;11.366;2023-04-03T10:10:45;5.90;99.90
8043;DHT22;4064;48.132;11.366;2023-04-03T10:13:20;6.00;99.90
8043;DHT22;4064;48.132;11.366;2023-04-03T10:16:07;6.00;99.90
8043;DHT22;4064;48.132;11.366;2023-04-03T10:18:47;6.00;99.90
8043;DHT22;4064;48.132;11.366;2023-04-03T10:21:35;5.80;99.80
8043;DHT22;4064;48.132;11.366;2023-04-03T10:24:28;5.70;99.90
8043;DHT22;4064;48.132;11.366;2023-04-03T10:27:02;5.70;99.90
8043;DHT22;4064;48.132;11.366;2023-04-03T10:29:42;5.50;99.80
8043;DHT22;4064;48.132;11.366;2023-04-03T10:32:41;5.30;99.80
8043;DHT22;4064;48.132;11.366;2023-04-03T10:38:04;5.10;99.90
8043;DHT22;4064;48.132;11.366;2023-04-03T10:46:31;5.00;99.90
8043;DHT22;4064;48.132;11.366;2023-04-03T10:49:25;4.90;99.90
8043;DHT22;4064;48.132;11.366;2023-04-03T10:54:46;4.70;99.90
8043;DHT22;4064;48.132;11.366;2023-04-03T10:57:16;4.50;99.90
8043;DHT22;4064;48.132;11.366;2023-04-03T11:00:16;4.50;99.90
8043;DHT22;4064;48.132;11.366;2023-04-03T11:03:03;4.40;99.90
8043;DHT22;4064;48.132;11.366;2023-04-03T11:05:44;4.50;99.90
8043;DHT22;4064;48.132;11.366;2023-04-03T11:08:28;4.60;99.90
8043;DHT22;4064;48.132;11.366;2023-04-03T11:11:03;4.70;99.90
8043;DHT22;4064;48.132;11.366;2023-04-03T11:13:41;4.60;99.90
8043;DHT22;4064;48.132;11.366;2023-04-03T11:16:09;4.60;99.90
8043;DHT22;4064;48.132;11.366;2023-04-03T11:18:45;4.60;99.90
8043;DHT22;4064;48.132;11.366;2023-04-03T11:21:33;4.60;99.90
8043;DHT22;4064;48.132;11.366;2023-04-03T11:24:03;4.60;99.90
8043;DHT22;4064;48.132;11.366;2023-04-03T11:26:38;4.70;99.90
8043;DHT22;4064;48.132;11.366;2023-04-03T11:29:23;4.70;99.60
8043;DHT22;4064;48.132;11.366;2023-04-03T11:32:20;4.80;99.80
8043;DHT22;4064;48.132;11.366;2023-04-03T11:34:57;4.90;99.30
8043;DHT22;4064;48.132;11.366;2023-04-03T11:42:42;5.00;98.60
8043;DHT22;4064;48.132;11.366;2023-04-03T11:50:47;5.20;97.80
8043;DHT22;4064;48.132;11.366;2023-04-03T11:55:44;5.20;97.20
8043;DHT22;4064;48.132;11.366;2023-04-03T11:58:17;5.30;97.20
8043;DHT22;4064;48.132;11.366;2023-04-03T12:08:27;5.90;96.70
8043;DHT22;4064;48.132;11.366;2023-04-03T12:24:31;6.80;91.50
8043;DHT22;4064;48.132;11.366;2023-04-03T12:29:34;7.20;90.00
8043;DHT22;4064;48.132;11.366;2023-04-03T12:48:29;7.10;82.00
8043;DHT22;4064;48.132;11.366;2023-04-03T12:50:58;7.20;80.70
8043;DHT22;4064;48.132;11.366;2023-04-03T12:53:32;7.30;79.20
8043;DHT22;4064;48.132;11.366;2023-04-03T12:58:44;7.50;79.90
8043;DHT22;4064;48.132;11.366;2023-04-03T13:01:13;7.50;78.00
8043;DHT22;4064;48.132;11.366;2023-04-03T13:03:44;7.70;78.30
8043;DHT22;4064;48.132;11.366;2023-04-03T13:06:23;8.00;77.70
8043;DHT22;4064;48.132;11.366;2023-04-03T13:08:56;8.20;76.80
8043;DHT22;4064;48.132;11.366;2023-04-03T13:11:36;8.20;75.10
8043;DHT22;4064;48.132;11.366;2023-04-03T13:14:14;8.20;72.60
8043;DHT22;4064;48.132;11.366;2023-04-03T13:16:40;8.00;73.70
8043;DHT22;4064;48.132;11.366;2023-04-03T13:19:16;7.90;73.70
8043;DHT22;4064;48.132;11.366;2023-04-03T13:21:43;7.90;74.90
8043;DHT22;4064;48.132;11.366;2023-04-03T13:24:10;7.90;74.40
8043;DHT22;4064;48.132;11.366;2023-04-03T13:26:37;7.80;73.50
8043;DHT22;4064;48.132;11.366;2023-04-03T13:29:06;7.60;72.70
8043;DHT22;4064;48.132;11.366;2023-04-03T13:31:38;7.40;71.90
8043;DHT22;4064;48.132;11.366;2023-04-03T13:34:19;7.20;71.20
8043;DHT22;4064;48.132;11.366;2023-04-03T13:39:33;6.80;72.40
8043;DHT22;4064;48.132;11.366;2023-04-03T13:42:15;6.70;72.00
8043;DHT22;4064;48.132;11.366;2023-04-03T13:44:43;6.50;70.60
8043;DHT22;4064;48.132;11.366;2023-04-03T13:49:44;6.40;71.90
8043;DHT22;4064;48.132;11.366;2023-04-03T13:52:22;6.30;72.10
8043;DHT22;4064;48.132;11.366;2023-04-03T13:54:55;6.20;71.00
8043;DHT22;4064;48.132;11.366;2023-04-03T13:57:22;6.20;72.10
8043;DHT22;4064;48.132;11.366;2023-04-03T13:59:48;6.10;71.50
8043;DHT22;4064;48.132;11.366;2023-04-03T14:02:20;6.20;72.70
8043;DHT22;4064;48.132;11.366;2023-04-03T14:04:52;6.10;74.40
8043;DHT22;4064;48.132;11.366;2023-04-03T14:07:22;6.10;75.50
8043;DHT22;4064;48.132;11.366;2023-04-03T14:09:48;6.20;75.70
8043;DHT22;4064;48.132;11.366;2023-04-03T14:12:36;6.20;74.90
8043;DHT22;4064;48.132;11.366;2023-04-03T14:15:23;6.10;74.20
8043;DHT22;4064;48.132;11.366;2023-04-03T14:17:50;6.10;74.50
8043;DHT22;4064;48.132;11.366;2023-04-03T14:20:22;6.20;74.50
8043;DHT22;4064;48.132;11.366;2023-04-03T14:22:49;6.30;75.00
8043;DHT22;4064;48.132;11.366;2023-04-03T14:25:16;6.30;74.20
8043;DHT22;4064;48.132;11.366;2023-04-03T14:27:45;6.30;73.10
8043;DHT22;4064;48.132;11.366;2023-04-03T14:30:19;6.40;72.20
8043;DHT22;4064;48.132;11.366;2023-04-03T14:32:46;6.30;72.70
8043;DHT22;4064;48.132;11.366;2023-04-03T14:35:14;6.30;72.40
8043;DHT22;4064;48.132;11.366;2023-04-03T14:37:40;6.50;72.00
8043;DHT22;4064;48.132;11.366;2023-04-03T14:40:08;6.50;72.40
8043;DHT22;4064;48.132;11.366;2023-04-03T14:42:36;6.80;71.90
8043;DHT22;4064;48.132;11.366;2023-04-03T14:45:06;7.00;70.60
8043;DHT22;4064;48.132;11.366;2023-04-03T14:47:33;7.20;69.40
8043;DHT22;4064;48.132;11.366;2023-04-03T14:50:04;7.30;68.80
8043;DHT22;4064;48.132;11.366;2023-04-03T14:52:34;7.30;66.40
8043;DHT22;4064;48.132;11.366;2023-04-03T14:55:04;7.20;66.20
8043;DHT22;4064;48.132;11.366;2023-04-03T14:57:30;7.20;66.50
8043;DHT22;4064;48.132;11.366;2023-04-03T15:00:00;7.10;65.90
8043;DHT22;4064;48.132;11.366;2023-04-03T15:02:36;6.90;66.10
8043;DHT22;4064;48.132;11.366;2023-04-03T15:05:05;6.90;67.00
8043;DHT22;4064;48.132;11.366;2023-04-03T15:07:57;6.80;65.90
8043;DHT22;4064;48.132;11.366;2023-04-03T15:10:27;6.60;64.30
8043;DHT22;4064;48.132;11.366;2023-04-03T15:12:54;6.50;66.00
8043;DHT22;4064;48.132;11.366;2023-04-03T15:15:22;6.60;65.00
8043;DHT22;4064;48.132;11.366;2023-04-03T15:17:53;6.60;63.90
8043;DHT22;4064;48.132;11.366;2023-04-03T15:20:23;6.70;64.20
8043;DHT22;4064;48.132;11.366;2023-04-03T15:22:51;6.90;64.40
8043;DHT22;4064;48.132;11.366;2023-04-03T15:25:17;7.10;64.00
8043;DHT22;4064;48.132;11.366;2023-04-03T15:27:43;7.30;63.30
8043;DHT22;4064;48.132;11.366;2023-04-03T15:30:15;7.50;62.70
8043;DHT22;4064;48.132;11.366;2023-04-03T15:32:41;7.60;61.40
8043;DHT22;4064;48.132;11.366;2023-04-03T15:35:07;7.40;59.40
8043;DHT22;4064;48.132;11.366;2023-04-03T15:37:33;7.40;59.80
8043;DHT22;4064;48.132;11.366;2023-04-03T15:39:59;7.50;60.20
8043;DHT22;4064;48.132;11.366;2023-04-03T15:42:25;7.50;59.70
8043;DHT22;4064;48.132;11.366;2023-04-03T15:44:52;7.40;59.20
8043;DHT22;4064;48.132;11.366;2023-04-03T15:47:18;7.20;58.80
8043;DHT22;4064;48.132;11.366;2023-04-03T15:49:44;7.00;58.20
8043;DHT22;4064;48.132;11.366;2023-04-03T15:52:10;6.70;58.10
8043;DHT22;4064;48.132;11.366;2023-04-03T15:54:36;6.50;57.70
8043;DHT22;4064;48.132;11.366;2023-04-03T15:57:02;6.40;59.20
8043;DHT22;4064;48.132;11.366;2023-04-03T15:59:27;6.30;58.60
8043;DHT22;4064;48.132;11.366;2023-04-03T16:01:56;6.10;58.40
8043;DHT22;4064;48.132;11.366;2023-04-03T16:04:22;6.00;58.10
8043;DHT22;4064;48.132;11.366;2023-04-03T16:06:48;6.00;57.90
8043;DHT22;4064;48.132;11.366;2023-04-03T16:09:15;6.00;58.70
8043;DHT22;4064;48.132;11.366;2023-04-03T16:11:41;5.90;58.10
8043;DHT22;4064;48.132;11.366;2023-04-03T16:14:07;5.80;58.20
8043;DHT22;4064;48.132;11.366;2023-04-03T16:16:34;5.80;58.70
8043;DHT22;4064;48.132;11.366;2023-04-03T16:19:00;5.70;58.40
8043;DHT22;4064;48.132;11.366;2023-04-03T16:21:27;5.70;58.20
8043;DHT22;4064;48.132;11.366;2023-04-03T16:23:53;5.70;58.50
8043;DHT22;4064;48.132;11.366;2023-04-03T16:26:19;5.70;58.30
8043;DHT22;4064;48.132;11.366;2023-04-03T16:28:45;5.60;57.60
8043;DHT22;4064;48.132;11.366;2023-04-03T16:31:11;5.60;58.10
8043;DHT22;4064;48.132;11.366;2023-04-03T16:33:37;5.60;57.90
8043;DHT22;4064;48.132;11.366;2023-04-03T16:36:04;5.70;58.10
8043;DHT22;4064;48.132;11.366;2023-04-03T16:38:30;5.60;57.60
8043;DHT22;4064;48.132;11.366;2023-04-03T16:40:56;5.60;57.70
8043;DHT22;4064;48.132;11.366;2023-04-03T16:43:25;5.70;58.40
8043;DHT22;4064;48.132;11.366;2023-04-03T16:45:51;5.70;57.90
8043;DHT22;4064;48.132;11.366;2023-04-03T16:48:17;5.60;57.50
8043;DHT22;4064;48.132;11.366;2023-04-03T16:50:46;5.50;57.50
8043;DHT22;4064;48.132;11.366;2023-04-03T16:53:13;5.40;58.00
8043;DHT22;4064;48.132;11.366;2023-04-03T16:55:39;5.20;57.50
8043;DHT22;4064;48.132;11.366;2023-04-03T16:58:06;5.20;58.10
8043;DHT22;4064;48.132;11.366;2023-04-03T17:00:32;5.10;58.40
8043;DHT22;4064;48.132;11.366;2023-04-03T17:03:00;5.00;58.50
8043;DHT22;4064;48.132;11.366;2023-04-03T17:05:26;5.00;58.50
8043;DHT22;4064;48.132;11.366;2023-04-03T17:07:52;4.90;58.60
8043;DHT22;4064;48.132;11.366;2023-04-03T17:10:18;4.80;58.20
8043;DHT22;4064;48.132;11.366;2023-04-03T17:12:44;4.70;58.60
8043;DHT22;4064;48.132;11.366;2023-04-03T17:15:10;4.60;59.00
8043;DHT22;4064;48.132;11.366;2023-04-03T17:17:36;4.50;59.30
8043;DHT22;4064;48.132;11.366;2023-04-03T17:20:03;4.40;59.80
8043;DHT22;4064;48.132;11.366;2023-04-03T17:22:29;4.30;60.00
8043;DHT22;4064;48.132;11.366;2023-04-03T17:24:55;4.20;60.00
8043;DHT22;4064;48.132;11.366;2023-04-03T17:27:22;4.10;60.00
8043;DHT22;4064;48.132;11.366;2023-04-03T17:29:48;4.10;60.40
8043;DHT22;4064;48.132;11.366;2023-04-03T17:32:13;4.00;60.60
8043;DHT22;4064;48.132;11.366;2023-04-03T17:34:39;4.00;61.10
8043;DHT22;4064;48.132;11.366;2023-04-03T17:37:07;3.90;61.60
8043;DHT22;4064;48.132;11.366;2023-04-03T17:39:32;3.80;62.30
8043;DHT22;4064;48.132;11.366;2023-04-03T17:41:58;3.80;62.20
8043;DHT22;4064;48.132;11.366;2023-04-03T17:44:25;3.70;62.50
8043;DHT22;4064;48.132;11.366;2023-04-03T17:46:52;3.60;62.80
8043;DHT22;4064;48.132;11.366;2023-04-03T17:49:18;3.50;62.90
8043;DHT22;4064;48.132;11.366;2023-04-03T17:51:45;3.40;64.00
8043;DHT22;4064;48.132;11.366;2023-04-03T17:54:11;3.30;64.30
8043;DHT22;4064;48.132;11.366;2023-04-03T17:56:37;3.30;64.80
8043;DHT22;4064;48.132;11.366;2023-04-03T17:59:03;3.20;64.90